Latest Weather Observations for Bankstown

IDN60901

Issued at 3:11 am EST Sunday 25 June 2017 (issued every 10 minutes, with the page automatically refreshed every 10 minutes)

About weather observations | Map of Sydney area stations | Latest observations for Sydney area | Other Formats
Station Details ID: 066137 Name: BANKSTOWN AIRPORT AWS Lat: -33.92 Lon: 150.99 Height: 6.5 m
Data from the previous 72 hours. | See also: Recent months at Bankstown
Date/Time
EST
Temp
°C
App
Temp
°C
Dew
Point
°C
Rel
Hum
%
Delta-T
°C
Wind Press
QNH
hPa
Press
MSL
hPa
Rain since
9am
mm
Dir  Spd
km/h
Gust
km/h
Spd
kts
Gust
kts
25/03:00am 3.5 1.9 2.5 93 0.4 CALM 0 0 0 0 1017.8 1017.8 0.0
25/02:30am 3.5 1.9 2.5 93 0.4 CALM 0 0 0 0 1017.8 1017.8 0.0
25/02:00am 4.9 3.6 4.0 94 0.4 CALM 0 0 0 0 1017.7 1017.7 0.0
25/01:30am 4.7 3.4 4.0 95 0.3 CALM 0 0 0 0 1017.6 1017.6 0.0
25/01:00am 5.1 3.8 4.1 93 0.4 CALM 0 0 0 0 1017.7 1017.7 0.0
25/12:30am 4.7 3.3 3.4 91 0.5 CALM 0 6 0 3 1017.8 1017.8 0.0
25/12:00am 4.7 3.1 2.7 87 0.8 CALM 0 0 0 0 1018.0 1018.0 0.0
 
Date/Time
EST
Temp
°C
App
Temp
°C
Dew
Point
°C
Rel
Hum
%
Delta-T
°C
Wind Press
QNH
hPa
Press
MSL
hPa
Rain since
9am
mm
Dir  Spd
km/h
Gust
km/h
Spd
kts
Gust
kts
24/11:30pm 5.7 4.3 3.4 85 1.0 CALM 0 0 0 0 1018.2 1018.2 0.0
24/11:00pm 7.1 4.3 5.3 88 0.8 NNW 9 11 5 6 1018.1 1018.1 0.0
24/10:30pm 6.3 5.0 4.3 87 0.9 CALM 0 0 0 0 1018.0 1018.0 0.0
24/10:00pm 7.6 6.4 4.6 81 1.3 CALM 0 0 0 0 1018.1 1018.1 0.0
24/09:30pm 7.4 5.6 3.3 75 1.7 SE 2 6 1 3 1018.0 1018.0 0.0
24/09:00pm 7.7 6.4 4.1 78 1.6 CALM 0 0 0 0 1017.7 1017.7 0.0
24/08:30pm 9.5 7.9 4.5 71 2.2 SE 2 6 1 3 1017.8 1017.8 0.0
24/08:00pm 10.1 7.9 6.3 77 1.8 SSE 7 7 4 4 1017.5 1017.5 0.0
24/07:30pm 8.8 7.7 5.0 77 1.7 CALM 0 0 0 0 1017.4 1017.4 0.0
24/07:00pm 9.3 7.1 5.5 77 1.7 SSW 6 7 3 4 1017.2 1017.2 0.0
24/06:30pm 11.4 10.5 5.9 69 2.6 CALM 0 0 0 0 1016.7 1016.7 0.0
24/06:00pm 11.9 10.8 5.1 63 3.1 CALM 0 0 0 0 1016.4 1016.4 0.0
24/05:30pm 13.2 11.0 5.4 59 3.6 SW 6 13 3 7 1016.0 1016.0 0.0
24/05:00pm 13.9 11.7 5.3 56 4.0 WSW 6 7 3 4 1015.8 1015.8 0.0
24/04:30pm 17.6 16.5 5.2 44 6.0 CALM 0 0 0 0 1015.7 1015.7 0.0
24/04:00pm 18.2 15.1 5.4 43 6.2 WSW 11 17 6 9 1015.4 1015.4 0.0
24/03:30pm 18.5 14.8 4.7 40 6.6 W 13 19 7 10 1015.3 1015.3 0.0
24/03:00pm 19.0 15.0 4.7 39 6.9 W 15 24 8 13 1015.2 1015.2 0.0
24/02:30pm 18.6 14.6 4.8 40 6.6 WSW 15 20 8 11 1015.2 1015.2 0.0
24/02:00pm 18.7 14.5 5.5 42 6.4 W 17 30 9 16 1015.3 1015.3 0.0
24/01:30pm 17.9 14.0 5.2 43 6.1 W 15 24 8 13 1015.2 1015.2 0.0
24/01:00pm 17.9 14.0 5.5 44 6.0 WSW 15 20 8 11 1015.5 1015.5 0.0
24/12:30pm 17.3 12.9 4.9 44 5.9 WSW 17 22 9 12 1015.8 1015.8 0.0
24/12:00pm 16.7 13.9 5.3 47 5.5 W 9 17 5 9 1016.2 1016.2 0.0
24/11:30am 16.0 13.4 6.2 52 4.8 WNW 9 13 5 7 1016.7 1016.7 0.0
24/11:00am 14.6 10.8 5.9 56 4.1 NW 15 17 8 9 1016.9 1016.9 0.0
24/10:30am 13.0 10.3 5.7 61 3.4 NW 9 13 5 7 1017.5 1017.5 0.0
24/10:00am 12.3 9.6 5.7 64 3.1 WNW 9 11 5 6 1017.8 1017.8 0.0
24/09:30am 11.5 8.8 5.8 68 2.6 WNW 9 13 5 7 1018.1 1018.1 0.0
24/09:00am 10.1 7.8 5.7 74 2.0 WSW 7 11 4 6 1017.8 1017.8 0.0
24/08:30am 9.2 6.9 5.0 75 1.9 WNW 6 7 3 4 1017.6 1017.6 0.0
24/08:00am 8.4 4.9 5.5 82 1.3 NW 13 17 7 9 1017.1 1017.1 0.0
24/07:30am 6.2 3.5 3.9 85 1.0 SE 7 11 4 6 1017.2 1017.2 0.0
24/07:00am 7.3 3.7 4.8 84 1.1 NW 13 19 7 10 1016.4 1016.4 0.0
24/06:30am 7.4 4.9 4.7 83 1.2 NNW 7 13 4 7 1016.2 1016.2 0.0
24/06:00am 8.4 4.8 4.8 78 1.6 NW 13 17 7 9 1015.5 1015.5 0.0
24/05:30am 7.7 5.1 4.1 78 1.6 WSW 7 9 4 5 1015.4 1015.4 0.0
24/05:00am 8.7 5.6 5.6 81 1.4 WNW 11 17 6 9 1014.7 1014.7 0.0
24/04:30am 8.1 4.3 5.6 84 1.1 WNW 15 19 8 10 1014.4 1014.4 0.0
24/04:00am 7.4 3.5 5.4 87 0.9 WNW 15 17 8 9 1014.8 1014.8 0.0
24/03:30am 7.7 3.1 5.7 87 0.9 NW 19 22 10 12 1015.2 1015.2 0.0
24/03:00am 7.7 2.9 5.7 87 0.9 NW 20 24 11 13 1014.9 1014.9 0.0
24/02:30am 5.4 2.2 5.0 97 0.2 NNW 11 13 6 7 1014.8 1014.8 0.0
24/02:18am 5.9 3.2 5.5 97 0.2 NNW 9 11 5 6 1014.9 1014.9 0.0
24/02:00am 4.6 3.3 3.9 95 0.3 CALM 0 0 0 0 1015.0 1015.0 0.0
24/01:34am 5.6 4.1 5.0 96 0.3 SE 2 7 1 4 1015.1 1015.1 0.0
24/01:30am 5.5 4.0 4.8 95 0.3 SE 2 7 1 4 1015.1 1015.1 0.0
24/01:16am 5.7 4.6 5.0 95 0.3 CALM 0 0 0 0 1014.7 1014.7 0.0
24/01:00am 6.7 4.5 6.1 96 0.3 SE 7 9 4 5 1014.6 1014.6 0.0
24/12:30am 7.0 4.9 6.6 97 0.2 NNW 7 9 4 5 1014.7 1014.7 0.0
24/12:07am 6.7 4.5 6.3 97 0.2 NNW 7 13 4 7 1014.7 1014.7 0.0
24/12:00am 7.1 5.0 6.7 97 0.2 NW 7 15 4 8 1014.8 1014.8 0.0
 
Date/Time
EST
Temp
°C
App
Temp
°C
Dew
Point
°C
Rel
Hum
%
Delta-T
°C
Wind Press
QNH
hPa
Press
MSL
hPa
Rain since
9am
mm
Dir  Spd
km/h
Gust
km/h
Spd
kts
Gust
kts
23/11:55pm 6.4 4.7 5.7 95 0.3 W 4 15 2 8 1014.9 1014.9 0.0
23/11:42pm 5.4 3.8 4.7 95 0.3 NNW 2 7 1 4 1015.0 1015.0 0.0
23/11:30pm 7.3 5.4 6.7 96 0.3 NNW 6 9 3 5 1015.1 1015.1 0.0
23/11:26pm 6.3 4.2 5.6 95 0.3 NNW 6 9 3 5 1015.3 1015.3 0.0
23/11:00pm 6.3 4.5 5.4 94 0.4 NNE 4 6 2 3 1015.7 1015.7 0.0
23/10:36pm 6.5 5.5 5.5 93 0.4 CALM 0 0 0 0 1015.7 1015.7 0.0
23/10:30pm 7.7 7.0 7.1 96 0.3 CALM 0 0 0 0 1015.7 1015.7 0.0
23/10:17pm 7.8 7.1 7.1 95 0.3 CALM 0 0 0 0 1015.5 1015.5 0.0
23/10:11pm 7.3 6.4 6.2 93 0.5 CALM 0 0 0 0 1015.5 1015.5 0.0
23/10:00pm 7.7 7.0 6.8 94 0.4 CALM 0 0 0 0 1015.3 1015.3 0.0
23/09:30pm 8.4 7.8 7.5 94 0.4 CALM 0 0 0 0 1015.2 1015.2 0.0
23/09:00pm 9.1 8.7 8.2 94 0.4 CALM 0 0 0 0 1015.4 1015.4 0.0
23/08:30pm 9.6 9.2 8.2 91 0.7 CALM 0 0 0 0 1015.4 1015.4 0.0
23/08:00pm 10.4 10.1 8.8 90 0.8 CALM 0 0 0 0 1015.5 1015.5 0.0
23/07:30pm 11.4 10.2 9.5 88 1.0 SW 6 7 3 4 1015.4 1015.4 0.0
23/07:00pm 11.0 9.5 9.1 88 0.9 NW 7 9 4 5 1015.3 1015.3 0.0
23/06:30pm 11.7 11.5 8.9 83 1.4 CALM 0 0 0 0 1015.0 1015.0 0.0
23/06:00pm 12.1 11.7 8.4 78 1.8 CALM 0 0 0 0 1015.0 1015.0 0.0
23/05:30pm 13.2 12.9 8.5 73 2.3 CALM 0 0 0 0 1015.0 1015.0 0.0
23/05:00pm 15.5 14.5 9.0 65 3.3 NW 4 7 2 4 1014.9 1014.9 0.0
23/04:30pm 16.8 15.6 9.7 63 3.7 NW 6 11 3 6 1014.7 1014.7 0.0
23/04:00pm 17.3 15.2 8.4 56 4.6 NNW 9 11 5 6 1014.4 1014.4 0.0
23/03:30pm 17.5 15.2 8.9 57 4.5 NW 11 17 6 9 1014.7 1014.7 0.0
23/03:00pm 16.8 15.1 9.7 63 3.7 W 9 13 5 7 1015.1 1015.1 0.0
23/02:30pm 15.6 13.8 9.5 67 3.2 W 9 11 5 6 1015.1 1015.1 0.0
23/02:00pm 15.3 13.8 9.0 66 3.2 WNW 7 9 4 5 1015.2 1015.2 0.0
23/01:30pm 15.3 13.4 9.0 66 3.2 W 9 13 5 7 1016.0 1016.0 0.0
23/01:00pm 14.9 13.3 8.6 66 3.2 NW 7 11 4 6 1016.6 1016.6 0.0
23/12:30pm 14.4 11.7 9.0 70 2.7 NW 13 17 7 9 1017.2 1017.2 0.0
23/12:00pm 13.4 11.8 8.7 73 2.4 NNW 7 11 4 6 1017.8 1017.8 0.0
23/11:30am 12.7 10.6 8.4 75 2.1 WNW 9 15 5 8 1018.9 1018.9 0.0
23/11:00am 13.3 11.9 9.7 79 1.8 NNW 7 13 4 7 1019.4 1019.4 0.0
23/10:30am 11.5 9.4 8.4 81 1.5 NW 9 13 5 7 1020.4 1020.4 0.0
23/10:00am 10.4 8.4 8.8 90 0.8 WNW 9 11 5 6 1021.0 1021.0 0.0
23/09:30am 9.6 7.8 7.9 89 0.8 NW 7 9 4 5 1021.2 1021.2 0.0
23/09:00am 8.8 6.9 7.4 91 0.7 NW 7 9 4 5 1021.0 1021.0 0.0
23/08:30am 8.4 6.7 7.6 95 0.4 NW 6 7 3 4 1021.0 1021.0 0.0
23/08:00am 8.0 6.0 7.2 95 0.4 NW 7 9 4 5 1020.8 1020.8 0.0
23/07:30am 7.6 5.2 7.0 96 0.3 WNW 9 11 5 6 1021.4 1021.4 0.0
23/07:00am 7.3 5.4 6.9 97 0.2 NNW 6 7 3 4 1021.1 1021.1 0.0
23/06:30am 7.0 6.2 6.4 96 0.3 CALM 0 0 0 0 1020.9 1020.9 0.0
23/06:00am 7.2 5.1 6.6 96 0.3 NNW 7 9 4 5 1020.9 1020.9 0.0
23/05:30am 7.3 5.3 6.9 97 0.2 NNW 7 9 4 5 1021.0 1021.0 0.0
23/05:00am 6.8 4.8 6.2 96 0.3 NNW 6 7 3 4 1021.0 1021.0 0.0
23/04:30am 7.2 4.3 6.6 96 0.3 NNW 11 13 6 7 1021.2 1021.2 0.0
23/04:00am 7.1 4.2 6.7 97 0.2 NNW 11 13 6 7 1021.3 1021.3 0.0
23/03:30am 6.9 4.8 6.6 98 0.1 NNW 7 9 4 5 1021.6 1021.6 0.0
23/03:06am 6.7 4.5 6.3 97 0.2 NW 7 7 4 4 1021.6 1021.6 0.0
23/03:00am 5.8 3.4 5.4 97 0.2 NW 7 9 4 5 1021.7 1021.7 0.0
23/02:30am 5.6 4.5 4.9 95 0.3 CALM 0 0 0 0 1021.8 1021.8 0.0
23/02:22am 5.5 4.4 4.9 96 0.3 CALM 0 0 0 0 1021.9 1021.9 0.0
23/02:19am 5.9 4.8 5.3 96 0.3 CALM 0 0 0 0 1021.9 1021.9 0.0
23/02:17am 6.1 5.1 5.7 97 0.2 CALM 0 0 0 0 1021.9 1021.9 0.0
23/02:00am 6.7 5.9 6.3 97 0.2 CALM 0 0 0 0 1022.1 1022.1 0.0
23/01:30am 6.8 5.9 6.2 96 0.3 CALM 0 0 0 0 1022.3 1022.3 0.0
23/01:26am 6.6 5.7 6.0 96 0.3 CALM 0 0 0 0 1022.3 1022.3 0.0
23/01:00am 7.4 6.7 6.8 96 0.3 CALM 0 0 0 0 1022.4 1022.4 0.0
23/12:33am 7.7 7.0 7.1 96 0.3 CALM 0 0 0 0 1022.7 1022.7 0.0
23/12:30am 7.7 7.0 7.1 96 0.3 CALM 0 0 0 0 1022.7 1022.7 0.0
23/12:27am 7.2 6.4 6.6 96 0.3 CALM 0 0 0 0 1022.6 1022.6 0.0
23/12:00am 7.7 7.0 7.0 95 0.3 CALM 0 0 0 0 1022.8 1022.8 0.0
 
Date/Time
EST
Temp
°C
App
Temp
°C
Dew
Point
°C
Rel
Hum
%
Delta-T
°C
Wind Press
QNH
hPa
Press
MSL
hPa
Rain since
9am
mm
Dir  Spd
km/h
Gust
km/h
Spd
kts
Gust
kts
22/11:53pm 7.5 6.7 6.4 93 0.5 CALM 0 0 0 0 1022.9 1022.9 0.0
22/11:30pm 7.9 7.2 7.0 94 0.4 CALM 0 0 0 0 1023.4 1023.4 0.0
22/11:00pm 9.2 8.9 8.6 96 0.3 CALM 0 0 0 0 1024.0 1024.0 0.0
22/10:53pm 9.4 9.1 8.8 96 0.3 CALM 0 6 0 3 1023.9 1023.9 0.0
22/10:30pm 8.3 6.6 7.4 94 0.4 SW 6 6 3 3 1024.1 1024.1 0.0
22/10:21pm 8.6 7.6 7.5 93 0.5 SW 2 6 1 3 1024.1 1024.1 0.0
22/10:00pm 9.3 8.9 8.4 94 0.4 CALM 0 0 0 0 1023.9 1023.9 0.0
22/09:30pm 10.3 10.2 9.4 94 0.4 CALM 0 0 0 0 1024.1 1024.1 0.0
22/09:00pm 10.4 10.3 9.3 93 0.5 CALM 0 0 0 0 1024.3 1024.3 0.0
22/08:30pm 10.6 10.4 9.0 90 0.8 CALM 0 0 0 0 1024.4 1024.4 0.0
22/08:00pm 11.4 11.4 9.8 90 0.8 CALM 0 0 0 0 1024.4 1024.4 0.0
22/07:30pm 11.9 11.8 9.5 85 1.2 CALM 0 0 0 0 1024.3 1024.3 0.0
22/07:00pm 12.5 12.5 9.7 83 1.4 CALM 0 4 0 2 1024.6 1024.6 0.0
22/06:30pm 13.0 12.4 9.1 77 2.0 ENE 2 6 1 3 1024.5 1024.5 0.0
22/06:00pm 14.7 13.4 9.9 73 2.5 E 7 11 4 6 1024.2 1024.2 0.0
22/05:30pm 15.1 13.5 10.3 73 2.5 E 9 11 5 6 1024.2 1024.2 0.0
22/05:00pm 15.4 13.9 8.6 64 3.4 ENE 6 9 3 5 1024.3 1024.3 0.0
22/04:30pm 17.4 15.8 8.0 54 4.8 NNW 6 6 3 3 1024.5 1024.5 0.0
22/04:00pm 18.2 16.6 7.9 51 5.2 NW 6 9 3 5 1024.7 1024.7 0.0
22/03:30pm 18.4 16.7 7.5 49 5.5 NW 6 9 3 5 1024.5 1024.5 0.0
22/03:00pm 18.7 17.1 7.8 49 5.5 N 6 9 3 5 1024.4 1024.4 0.0
22/02:30pm 18.9 17.4 8.3 50 5.5 SW 6 9 3 5 1024.5 1024.5 0.0
22/02:00pm 18.3 16.6 7.7 50 5.4 NNW 6 9 3 5 1024.6 1024.6 0.0
22/01:30pm 18.3 16.6 8.3 52 5.1 NW 7 13 4 7 1025.2 1025.2 0.0
22/01:00pm 17.8 16.5 9.2 57 4.5 E 6 9 3 5 1025.6 1025.6 0.0
22/12:30pm 17.2 15.7 9.1 59 4.2 W 7 9 4 5 1026.2 1026.2 0.0
22/12:00pm 16.7 14.8 8.9 60 4.0 NW 9 11 5 6 1026.8 1026.8 0.0
22/11:30am 16.3 15.0 9.3 63 3.6 SW 6 11 3 6 1027.4 1027.4 0.0
22/11:00am 15.5 13.3 9.4 67 3.1 W 11 15 6 8 1028.0 1028.0 0.0
22/10:30am 14.5 12.2 8.9 69 2.8 SW 11 15 6 8 1028.4 1028.4 0.0
22/10:00am 13.4 10.6 8.5 72 2.4 WSW 13 17 7 9 1028.9 1028.9 0.0
22/09:30am 12.4 9.5 8.3 76 2.0 WSW 13 17 7 9 1028.9 1028.9 0.0
22/09:00am 11.2 9.0 7.7 79 1.7 WSW 9 15 5 8 1028.8 1028.8 0.0
22/08:30am 10.2 7.9 7.6 84 1.2 WSW 9 15 5 8 1028.6 1028.6 0.0
22/08:00am 9.1 7.1 7.1 87 0.9 SW 7 9 4 5 1028.6 1028.6 0.0
22/07:30am 7.9 6.0 6.5 91 0.6 WSW 6 9 3 5 1028.4 1028.4 0.0
22/07:00am 6.8 5.4 5.3 90 0.7 WNW 2 9 1 5 1028.2 1028.2 0.0
22/06:30am 8.1 6.2 6.7 91 0.6 NW 6 7 3 4 1027.9 1027.9 0.0
22/06:00am 7.8 5.8 6.3 90 0.7 NNW 6 7 3 4 1027.5 1027.5 0.0
22/05:30am 8.2 6.1 6.8 91 0.6 NW 7 9 4 5 1027.2 1027.2 0.0
22/05:00am 8.6 6.6 7.1 90 0.7 NNW 7 9 4 5 1027.2 1027.2 0.0
22/04:30am 9.3 7.6 7.7 90 0.8 WSW 6 7 3 4 1027.1 1027.1 0.0
22/04:00am 9.6 7.7 7.5 87 1.0 W 7 11 4 6 1027.0 1027.0 0.0
22/03:30am 9.7 8.1 7.8 88 0.9 WSW 6 9 3 5 1026.9 1026.9 0.0

Latest Capital City Observations: Canberra | Sydney | Melbourne | Brisbane | Adelaide | Perth | Hobart | Darwin

Other Formats:

Comma delimited format used in spreadsheet applications
http://www.bom.gov.au/fwo/IDN60901/IDN60901.94765.axf

JavaScript Object Notation format (JSON) in row-major order
http://www.bom.gov.au/fwo/IDN60901/IDN60901.94765.json